createdAt,value
2023-04-02T00:01:03.816Z,50.63
2023-04-02T00:03:59.892Z,51.00
2023-04-02T00:06:30.336Z,50.52
2023-04-02T00:08:59.420Z,50.49
2023-04-02T00:11:34.387Z,50.58
2023-04-02T00:14:03.808Z,50.58
2023-04-02T00:16:31.421Z,50.80
2023-04-02T00:19:04.305Z,50.69
2023-04-02T00:21:38.864Z,50.76
2023-04-02T00:24:20.053Z,50.48
2023-04-02T00:26:51.175Z,50.73
2023-04-02T00:29:19.398Z,50.72
2023-04-02T00:31:51.037Z,50.85
2023-04-02T00:34:26.047Z,50.94
2023-04-02T00:36:53.448Z,50.95
2023-04-02T00:39:25.779Z,50.78
2023-04-02T00:42:04.647Z,50.72
2023-04-02T00:44:44.345Z,50.73
2023-04-02T00:47:33.646Z,50.83
2023-04-02T00:50:17.621Z,50.87
2023-04-02T00:52:46.817Z,50.80
2023-04-02T00:55:27.483Z,50.98
2023-04-02T00:57:56.010Z,50.75
2023-04-02T01:00:29.181Z,50.89
2023-04-02T01:03:18.127Z,50.94
2023-04-02T01:05:57.656Z,50.88
2023-04-02T01:09:22.527Z,50.91
2023-04-02T01:12:27.377Z,50.85
2023-04-02T01:15:18.669Z,50.83
2023-04-02T01:18:02.845Z,50.91
2023-04-02T01:21:06.410Z,51.09
2023-04-02T01:24:01.607Z,51.10
2023-04-02T01:26:48.063Z,51.36
2023-04-02T01:29:39.809Z,51.29
2023-04-02T01:32:17.367Z,51.07
2023-04-02T01:34:48.046Z,51.19
2023-04-02T01:37:44.830Z,51.12
2023-04-02T01:41:09.616Z,51.08
2023-04-02T01:43:53.442Z,51.24
2023-04-02T01:46:32.309Z,51.09
2023-04-02T01:49:12.751Z,51.01
2023-04-02T01:51:46.844Z,50.97
2023-04-02T01:54:17.932Z,50.97
2023-04-02T01:56:47.295Z,50.95
2023-04-02T01:59:20.069Z,51.03
2023-04-02T02:02:04.687Z,51.14
2023-04-02T02:04:34.513Z,51.01
2023-04-02T02:07:02.721Z,51.21
2023-04-02T02:09:34.292Z,51.12
2023-04-02T02:12:03.795Z,51.15
2023-04-02T02:14:32.053Z,51.19
2023-04-02T02:17:02.654Z,51.33
2023-04-02T02:19:45.757Z,51.45
2023-04-02T02:22:38.767Z,51.40
2023-04-02T02:25:19.980Z,51.46
2023-04-02T02:27:57.022Z,51.54
2023-04-02T02:30:53.558Z,51.55
2023-04-02T02:33:36.145Z,51.67
2023-04-02T02:36:37.546Z,51.49
2023-04-02T02:39:17.845Z,51.76
2023-04-02T02:42:04.313Z,51.76
2023-04-02T02:44:36.339Z,51.71
2023-04-02T02:47:14.402Z,51.84
2023-04-02T02:49:46.227Z,51.81
2023-04-02T02:52:18.264Z,51.82
2023-04-02T02:55:01.203Z,51.82
2023-04-02T02:57:48.410Z,51.74
2023-04-02T03:00:19.837Z,51.79
2023-04-02T03:02:48.044Z,51.94
2023-04-02T03:05:23.915Z,51.88
2023-04-02T03:07:57.115Z,51.83
2023-04-02T03:10:40.848Z,51.95
2023-04-02T03:13:47.214Z,51.82
2023-04-02T03:16:34.532Z,51.88
2023-04-02T03:19:23.030Z,51.88
2023-04-02T03:22:05.375Z,51.99
2023-04-02T03:24:45.638Z,52.01
2023-04-02T03:27:21.259Z,51.92
2023-04-02T03:30:07.770Z,52.37
2023-04-02T03:32:40.733Z,52.05
2023-04-02T03:35:41.079Z,52.18
2023-04-02T03:38:19.432Z,52.14
2023-04-02T03:41:07.618Z,52.10
2023-04-02T03:43:47.508Z,52.12
2023-04-02T03:46:26.632Z,52.03
2023-04-02T03:49:19.610Z,52.16
2023-04-02T03:52:02.554Z,52.08
2023-04-02T03:54:29.899Z,52.11
2023-04-02T03:56:57.466Z,52.11
2023-04-02T03:59:45.361Z,52.12
2023-04-02T04:02:34.930Z,52.26
2023-04-02T04:05:05.886Z,52.12
2023-04-02T04:07:38.842Z,52.10
2023-04-02T04:10:08.637Z,52.24
2023-04-02T04:12:43.932Z,52.28
2023-04-02T04:15:27.119Z,52.17
2023-04-02T04:18:29.735Z,52.17
2023-04-02T04:21:11.896Z,52.10
2023-04-02T04:23:50.580Z,52.20
2023-04-02T04:26:34.840Z,52.11
2023-04-02T04:29:38.016Z,52.20
2023-04-02T04:32:34.691Z,52.24
2023-04-02T04:35:31.536Z,52.44
2023-04-02T04:38:07.607Z,52.34
2023-04-02T04:40:43.538Z,52.47
2023-04-02T04:43:19.214Z,52.47
2023-04-02T04:45:57.576Z,52.32
2023-04-02T04:48:36.013Z,52.38
2023-04-02T04:51:09.240Z,52.43
2023-04-02T04:53:47.398Z,52.24
2023-04-02T04:56:21.648Z,52.15
2023-04-02T04:59:03.754Z,52.35
2023-04-02T05:02:15.170Z,52.53
2023-04-02T05:04:49.396Z,52.47
2023-04-02T05:07:31.806Z,52.66
2023-04-02T05:10:21.865Z,52.62
2023-04-02T05:12:52.694Z,52.54
2023-04-02T05:15:32.474Z,52.43
2023-04-02T05:18:29.858Z,52.60
2023-04-02T05:21:19.701Z,52.55
2023-04-02T05:24:13.664Z,52.47
2023-04-02T05:26:45.851Z,52.55
2023-04-02T05:29:25.723Z,52.51
2023-04-02T05:32:22.260Z,52.68
2023-04-02T05:34:54.856Z,52.57
2023-04-02T05:37:26.819Z,52.47
2023-04-02T05:40:14.700Z,52.61
2023-04-02T05:42:49.476Z,52.51
2023-04-02T05:45:24.826Z,52.46
2023-04-02T05:48:00.042Z,52.47
2023-04-02T05:50:42.955Z,52.41
2023-04-02T05:53:23.288Z,52.42
2023-04-02T05:56:01.681Z,52.31
2023-04-02T05:58:56.232Z,52.27
2023-04-02T06:01:42.990Z,52.31
2023-04-02T06:04:30.947Z,52.08
2023-04-02T06:07:19.824Z,52.36
2023-04-02T06:10:03.208Z,52.16
2023-04-02T06:12:54.569Z,52.04
2023-04-02T06:15:23.733Z,52.02
2023-04-02T06:18:01.044Z,52.00
2023-04-02T06:20:28.583Z,52.07
2023-04-02T06:23:06.545Z,51.88
2023-04-02T06:25:54.005Z,51.89
2023-04-02T06:28:48.983Z,52.15
2023-04-02T06:31:50.633Z,52.19
2023-04-02T06:34:22.532Z,51.83
2023-04-02T06:36:59.542Z,51.81
2023-04-02T06:39:28.263Z,51.96
2023-04-02T06:42:06.330Z,51.92
2023-04-02T06:44:55.428Z,52.01
2023-04-02T06:47:50.594Z,51.93
2023-04-02T06:50:44.640Z,51.98
2023-04-02T06:53:47.305Z,51.77
2023-04-02T06:56:47.003Z,51.77
2023-04-02T06:59:22.388Z,51.76
2023-04-02T07:01:57.352Z,51.88
2023-04-02T07:04:25.500Z,52.00
2023-04-02T07:06:54.118Z,52.06
2023-04-02T07:09:24.032Z,51.96
2023-04-02T07:11:54.588Z,52.06
2023-04-02T07:14:21.518Z,52.06
2023-04-02T07:16:48.643Z,52.09
2023-04-02T07:19:20.338Z,52.17
2023-04-02T07:21:48.859Z,52.40
2023-04-02T07:24:16.352Z,52.19
2023-04-02T07:26:43.269Z,52.03
2023-04-02T07:29:16.236Z,52.00
2023-04-02T07:31:43.844Z,51.85
2023-04-02T07:34:10.811Z,51.90
2023-04-02T07:36:37.749Z,51.90
2023-04-02T07:39:05.040Z,51.68
2023-04-02T07:41:32.015Z,51.82
2023-04-02T07:43:58.949Z,51.77
2023-04-02T07:46:26.393Z,51.76
2023-04-02T07:48:53.289Z,51.65
2023-04-02T07:51:26.623Z,51.63
2023-04-02T07:53:55.923Z,51.49
2023-04-02T07:56:25.090Z,51.35
2023-04-02T07:58:52.432Z,51.44
2023-04-02T08:01:26.052Z,51.55
2023-04-02T08:03:57.717Z,51.48
2023-04-02T08:06:25.230Z,51.44
2023-04-02T08:08:52.453Z,51.45
2023-04-02T08:11:19.741Z,51.23
2023-04-02T08:13:46.742Z,51.16
2023-04-02T08:16:13.690Z,51.09
2023-04-02T08:18:40.527Z,51.04
2023-04-02T08:21:09.955Z,50.84
2023-04-02T08:23:38.095Z,50.74
2023-04-02T08:26:06.476Z,50.67
2023-04-02T08:28:33.420Z,50.59
2023-04-02T08:31:00.670Z,50.44
2023-04-02T08:33:27.635Z,50.52
2023-04-02T08:35:54.704Z,50.57
2023-04-02T08:38:22.308Z,50.49
2023-04-02T08:40:53.111Z,50.34
2023-04-02T08:43:44.006Z,50.17
2023-04-02T08:46:33.595Z,50.13
2023-04-02T08:49:08.831Z,50.13
2023-04-02T08:51:37.249Z,50.12
2023-04-02T08:54:17.999Z,50.12
2023-04-02T08:56:52.471Z,49.93
2023-04-02T08:59:34.851Z,49.94
2023-04-02T09:02:22.791Z,49.93
2023-04-02T09:04:50.091Z,49.94
2023-04-02T09:07:18.293Z,49.91
2023-04-02T09:09:49.633Z,49.92
2023-04-02T09:12:25.503Z,49.73
2023-04-02T09:15:22.525Z,49.79
2023-04-02T09:18:01.375Z,49.21
2023-04-02T09:20:29.278Z,49.48
2023-04-02T09:22:57.033Z,49.34
2023-04-02T09:25:31.343Z,49.24
2023-04-02T09:28:04.774Z,49.14
2023-04-02T09:30:59.878Z,49.00
2023-04-02T09:33:54.553Z,48.82
2023-04-02T09:36:40.360Z,48.79
2023-04-02T09:39:23.545Z,48.56
2023-04-02T09:42:02.719Z,48.72
2023-04-02T09:44:32.595Z,48.45
2023-04-02T09:47:06.531Z,48.65
2023-04-02T09:49:39.231Z,48.37
2023-04-02T09:52:27.732Z,48.24
2023-04-02T09:55:25.188Z,48.37
2023-04-02T09:58:16.470Z,48.29
2023-04-02T10:00:52.421Z,48.16
2023-04-02T10:03:26.110Z,47.99
2023-04-02T10:06:12.081Z,47.98
2023-04-02T10:08:42.494Z,48.08
2023-04-02T10:11:21.904Z,48.41
2023-04-02T10:14:01.745Z,48.24
2023-04-02T10:16:40.659Z,48.39
2023-04-02T10:19:34.479Z,48.95
2023-04-02T10:22:07.010Z,48.53
2023-04-02T10:24:33.883Z,48.29
2023-04-02T10:27:25.519Z,48.07
2023-04-02T10:30:27.273Z,48.10
2023-04-02T10:33:07.679Z,48.00
2023-04-02T10:35:52.344Z,48.06
2023-04-02T10:38:42.477Z,47.93
2023-04-02T10:41:33.399Z,47.86
2023-04-02T10:44:27.129Z,48.12
2023-04-02T10:47:19.749Z,47.94
2023-04-02T10:50:05.748Z,47.94
2023-04-02T10:52:46.159Z,48.04
2023-04-02T10:55:26.147Z,47.93
2023-04-02T10:57:54.077Z,48.21
2023-04-02T11:00:28.833Z,48.25
2023-04-02T11:03:07.114Z,48.14
2023-04-02T11:05:53.784Z,48.46
2023-04-02T11:08:26.761Z,48.54
2023-04-02T11:11:03.294Z,48.94
2023-04-02T11:14:01.022Z,49.50
2023-04-02T11:16:28.522Z,49.01
2023-04-02T11:19:16.982Z,49.24
2023-04-02T11:22:13.726Z,49.12
2023-04-02T11:24:54.929Z,49.19
2023-04-02T11:27:30.720Z,48.99
2023-04-02T11:30:15.853Z,48.97
2023-04-02T11:32:47.251Z,48.83
2023-04-02T11:35:32.086Z,48.80
2023-04-02T11:38:12.218Z,48.55
2023-04-02T11:40:58.709Z,48.60
2023-04-02T11:43:35.287Z,48.35
2023-04-02T11:46:20.360Z,48.26
2023-04-02T11:48:47.250Z,47.98
2023-04-02T11:51:23.245Z,47.76
2023-04-02T11:53:52.877Z,47.48
2023-04-02T11:56:35.581Z,47.55
2023-04-02T11:59:17.513Z,47.19
2023-04-02T12:02:08.563Z,47.21
2023-04-02T12:04:48.687Z,46.87
2023-04-02T12:07:51.917Z,47.21
2023-04-02T12:10:22.871Z,46.92
2023-04-02T12:12:51.389Z,46.59
2023-04-02T12:15:45.612Z,46.73
2023-04-02T12:18:16.615Z,46.68
2023-04-02T12:20:55.972Z,46.50
2023-04-02T12:23:36.355Z,46.63
2023-04-02T12:26:14.296Z,46.57
2023-04-02T12:28:42.508Z,47.01
2023-04-02T12:31:09.188Z,46.59
2023-04-02T12:33:38.787Z,46.60
2023-04-02T12:36:18.672Z,46.53
2023-04-02T12:38:55.953Z,46.51
2023-04-02T12:41:33.265Z,46.40
2023-04-02T12:44:15.453Z,46.26
2023-04-02T12:46:43.793Z,46.30
2023-04-02T12:49:40.338Z,46.41
2023-04-02T12:52:20.939Z,46.19
2023-04-02T12:54:52.889Z,46.16
2023-04-02T12:57:25.716Z,46.36
2023-04-02T13:00:01.442Z,46.39
2023-04-02T13:02:32.649Z,46.23
2023-04-02T13:05:01.703Z,46.40
2023-04-02T13:07:33.659Z,46.14
2023-04-02T13:10:04.791Z,46.36
2023-04-02T13:12:38.660Z,46.23
2023-04-02T13:15:09.504Z,46.63
2023-04-02T13:17:44.517Z,46.49
2023-04-02T13:20:37.515Z,46.40
2023-04-02T13:23:29.256Z,46.77
2023-04-02T13:26:17.065Z,46.68
2023-04-02T13:28:56.905Z,47.03
2023-04-02T13:31:23.805Z,46.84
2023-04-02T13:33:50.960Z,46.89
2023-04-02T13:36:17.877Z,46.96
2023-04-02T13:38:44.676Z,46.95
2023-04-02T13:41:24.893Z,46.78
2023-04-02T13:43:53.429Z,46.79
2023-04-02T13:46:24.887Z,46.59
2023-04-02T13:48:53.702Z,46.97
2023-04-02T13:51:34.872Z,47.26
2023-04-02T13:54:02.077Z,47.07
2023-04-02T13:56:28.897Z,47.16
2023-04-02T13:58:55.851Z,47.34
2023-04-02T14:01:24.454Z,47.57
2023-04-02T14:03:53.486Z,47.42
2023-04-02T14:07:06.725Z,47.75
2023-04-02T14:09:53.694Z,48.00
2023-04-02T14:12:41.445Z,47.60
2023-04-02T14:15:30.350Z,48.13
2023-04-02T14:18:40.763Z,48.06
2023-04-02T14:21:31.103Z,48.21
2023-04-02T14:24:31.933Z,48.11
2023-04-02T14:27:29.620Z,48.16
2023-04-02T14:30:07.058Z,48.48
2023-04-02T14:33:08.496Z,48.47
2023-04-02T14:35:44.071Z,48.59
2023-04-02T14:38:35.219Z,48.59
2023-04-02T14:41:11.470Z,48.64
2023-04-02T14:43:46.421Z,48.95
2023-04-02T14:46:18.077Z,48.96
2023-04-02T14:49:04.504Z,49.31
2023-04-02T14:51:45.753Z,49.32
2023-04-02T14:54:43.274Z,49.59
2023-04-02T14:57:30.845Z,49.76
2023-04-02T15:00:22.618Z,49.56
2023-04-02T15:03:13.122Z,49.72
2023-04-02T15:05:46.239Z,49.73
2023-04-02T15:08:37.278Z,49.81
2023-04-02T15:11:19.011Z,49.97
2023-04-02T15:14:13.885Z,50.01
2023-04-02T15:16:40.931Z,50.04
2023-04-02T15:19:17.707Z,50.33
2023-04-02T15:22:12.989Z,50.20
2023-04-02T15:25:08.851Z,50.28
2023-04-02T15:28:02.492Z,50.42
2023-04-02T15:30:39.628Z,50.20
2023-04-02T15:33:41.904Z,50.50
2023-04-02T15:36:37.296Z,50.60
2023-04-02T15:39:07.200Z,50.59
2023-04-02T15:41:41.387Z,50.41
2023-04-02T15:44:16.676Z,50.62
2023-04-02T15:47:10.410Z,50.67
2023-04-02T15:50:01.325Z,50.74
2023-04-02T15:52:53.403Z,50.80
2023-04-02T15:55:39.905Z,50.75
2023-04-02T15:58:55.400Z,50.80
2023-04-02T16:01:54.057Z,50.67
2023-04-02T16:04:46.256Z,50.99
2023-04-02T16:07:58.091Z,50.94
2023-04-02T16:10:41.868Z,50.98
2023-04-02T16:13:36.871Z,51.05
2023-04-02T16:16:17.375Z,50.86
2023-04-02T16:19:02.330Z,51.07
2023-04-02T16:21:34.804Z,51.00
2023-04-02T16:24:01.769Z,50.88
2023-04-02T16:26:54.392Z,51.12
2023-04-02T16:29:38.009Z,51.05
2023-04-02T16:32:37.589Z,50.90
2023-04-02T16:35:42.623Z,50.93
2023-04-02T16:38:28.997Z,50.86
2023-04-02T16:41:29.522Z,50.91
2023-04-02T16:44:51.842Z,50.84
2023-04-02T16:47:36.217Z,50.78
2023-04-02T16:50:35.258Z,50.83
2023-04-02T16:53:23.147Z,50.74
2023-04-02T16:56:35.472Z,50.58
2023-04-02T16:59:18.630Z,50.42
2023-04-02T17:02:31.427Z,50.47
2023-04-02T17:05:16.140Z,50.47
2023-04-02T17:08:05.763Z,50.39
2023-04-02T17:10:45.849Z,50.33
2023-04-02T17:13:29.615Z,50.47
2023-04-02T17:16:27.230Z,50.36
2023-04-02T17:18:59.617Z,50.14
2023-04-02T17:21:29.264Z,50.17
2023-04-02T17:24:18.376Z,50.05
2023-04-02T17:26:54.248Z,50.09
2023-04-02T17:29:29.929Z,49.86
2023-04-02T17:32:01.724Z,49.79
2023-04-02T17:34:29.207Z,49.79
2023-04-02T17:37:06.965Z,50.01
2023-04-02T17:39:42.493Z,49.81
2023-04-02T17:42:30.190Z,49.94
2023-04-02T17:45:04.881Z,49.91
2023-04-02T17:47:46.360Z,49.81
2023-04-02T17:50:38.719Z,49.75
2023-04-02T17:53:31.014Z,49.72
2023-04-02T17:56:27.154Z,49.66
2023-04-02T17:59:08.819Z,49.77
2023-04-02T18:01:54.682Z,49.50
2023-04-02T18:04:42.143Z,49.63
2023-04-02T18:07:43.233Z,49.45
2023-04-02T18:10:45.261Z,49.56
2023-04-02T18:13:43.087Z,49.47
2023-04-02T18:16:30.943Z,49.21
2023-04-02T18:19:17.055Z,49.39
2023-04-02T18:22:17.989Z,49.43
2023-04-02T18:25:15.367Z,49.30
2023-04-02T18:28:08.424Z,49.32
2023-04-02T18:30:54.846Z,49.22
2023-04-02T18:33:48.639Z,49.37
2023-04-02T18:36:32.761Z,49.24
2023-04-02T18:39:11.736Z,49.53
2023-04-02T18:42:23.647Z,49.31
2023-04-02T18:45:17.157Z,49.38
2023-04-02T18:48:08.594Z,49.37
2023-04-02T18:50:39.256Z,49.18
2023-04-02T18:53:20.518Z,49.11
2023-04-02T18:56:06.623Z,49.21
2023-04-02T18:58:56.743Z,49.15
2023-04-02T19:01:32.055Z,49.44
2023-04-02T19:04:06.348Z,49.16
2023-04-02T19:06:47.994Z,49.20
2023-04-02T19:09:37.269Z,49.12
2023-04-02T19:12:21.972Z,49.02
2023-04-02T19:14:51.048Z,48.55
2023-04-02T19:17:39.623Z,48.58
2023-04-02T19:20:47.107Z,48.99
2023-04-02T19:23:56.051Z,48.67
2023-04-02T19:26:36.465Z,48.85
2023-04-02T19:29:29.110Z,48.74
2023-04-02T19:32:11.006Z,48.47
2023-04-02T19:34:44.507Z,48.49
2023-04-02T19:37:38.522Z,48.90
2023-04-02T19:40:20.310Z,48.85
2023-04-02T19:42:50.207Z,48.46
2023-04-02T19:45:26.379Z,48.64
2023-04-02T19:47:53.787Z,48.38
2023-04-02T19:50:21.002Z,48.76
2023-04-02T19:52:47.868Z,48.30
2023-04-02T19:55:14.768Z,48.31
2023-04-02T19:57:41.620Z,48.35
2023-04-02T20:00:12.404Z,48.45
2023-04-02T20:02:39.397Z,47.83
2023-04-02T20:05:07.230Z,48.05
2023-04-02T20:07:34.070Z,47.92
2023-04-02T20:10:01.004Z,47.59
2023-04-02T20:12:27.820Z,47.86
2023-04-02T20:14:54.684Z,47.26
2023-04-02T20:17:21.473Z,47.80
2023-04-02T20:19:48.323Z,47.60
2023-04-02T20:22:15.413Z,47.23
2023-04-02T20:24:42.623Z,47.11
2023-04-02T20:27:09.486Z,47.26
2023-04-02T20:29:36.413Z,47.28
2023-04-02T20:32:03.984Z,47.30
2023-04-02T20:34:31.060Z,47.69
2023-04-02T20:36:57.986Z,47.59
2023-04-02T20:39:24.964Z,47.92
2023-04-02T20:41:51.759Z,47.90
2023-04-02T20:44:18.612Z,47.58
2023-04-02T20:46:46.154Z,47.90
2023-04-02T20:49:12.933Z,47.50
2023-04-02T20:51:39.781Z,47.57
2023-04-02T20:54:06.714Z,47.39
2023-04-02T20:56:33.903Z,47.45
2023-04-02T20:59:00.908Z,47.31
2023-04-02T21:01:30.302Z,47.46
2023-04-02T21:04:00.567Z,47.81
2023-04-02T21:06:31.476Z,47.52
2023-04-02T21:08:58.565Z,47.26
2023-04-02T21:11:26.126Z,47.26
2023-04-02T21:13:52.980Z,47.18
2023-04-02T21:16:22.360Z,47.28
2023-04-02T21:18:52.671Z,47.32
2023-04-02T21:21:20.928Z,47.63
2023-04-02T21:23:48.877Z,47.49
2023-04-02T21:26:17.556Z,47.23
2023-04-02T21:28:45.511Z,47.70
2023-04-02T21:31:15.771Z,47.33
2023-04-02T21:33:46.956Z,47.12
2023-04-02T21:36:20.170Z,47.50
2023-04-02T21:38:56.612Z,46.72
2023-04-02T21:41:26.437Z,46.60
2023-04-02T21:43:55.056Z,46.57
2023-04-02T21:46:25.707Z,46.86
2023-04-02T21:48:54.718Z,46.57
2023-04-02T21:51:27.186Z,46.72
2023-04-02T21:53:54.447Z,46.64
2023-04-02T21:56:30.865Z,46.74
2023-04-02T21:58:59.003Z,46.58
2023-04-02T22:01:29.088Z,46.77
2023-04-02T22:04:02.015Z,46.60
2023-04-02T22:06:32.352Z,46.69
2023-04-02T22:09:03.772Z,46.20
2023-04-02T22:11:35.703Z,46.20
2023-04-02T22:14:03.668Z,46.50
2023-04-02T22:16:33.397Z,46.34
2023-04-02T22:19:03.380Z,46.46
2023-04-02T22:21:32.216Z,46.21
2023-04-02T22:24:09.107Z,45.60
2023-04-02T22:26:36.460Z,45.78
2023-04-02T22:29:04.952Z,45.83
2023-04-02T22:31:34.849Z,45.87
2023-04-02T22:34:03.722Z,45.98
2023-04-02T22:36:34.058Z,45.96
2023-04-02T22:39:01.694Z,45.64
2023-04-02T22:41:29.672Z,46.06
2023-04-02T22:43:58.109Z,46.01
2023-04-02T22:46:26.534Z,45.95
2023-04-02T22:48:54.388Z,46.26
2023-04-02T22:51:22.860Z,45.82
2023-04-02T22:53:50.687Z,45.70
2023-04-02T22:56:24.858Z,45.66
2023-04-02T22:58:51.710Z,45.63
2023-04-02T23:01:35.428Z,45.61
2023-04-02T23:04:02.317Z,45.64
2023-04-02T23:06:29.384Z,45.89
2023-04-02T23:08:56.428Z,45.89
2023-04-02T23:11:26.349Z,45.69
2023-04-02T23:13:54.857Z,46.36
2023-04-02T23:16:23.017Z,45.90
2023-04-02T23:18:50.432Z,45.76
2023-04-02T23:21:20.049Z,46.31
2023-04-02T23:23:48.121Z,46.19
2023-04-02T23:26:31.689Z,46.04
2023-04-02T23:28:59.772Z,45.87
2023-04-02T23:31:26.829Z,45.50
2023-04-02T23:33:53.786Z,45.68
2023-04-02T23:36:31.872Z,45.68
2023-04-02T23:39:09.159Z,45.78
2023-04-02T23:41:37.781Z,45.49
2023-04-02T23:44:05.658Z,45.29
2023-04-02T23:46:33.384Z,45.43
2023-04-02T23:49:01.196Z,45.32
2023-04-02T23:51:29.628Z,45.51
2023-04-02T23:53:56.653Z,45.01
2023-04-02T23:56:24.210Z,45.18
2023-04-02T23:58:51.408Z,45.30
